createdAt,value
2018-06-27T00:01:18.135Z,6.67
2018-06-27T00:03:45.676Z,6.20
2018-06-27T00:06:13.339Z,7.53
2018-06-27T00:08:40.882Z,6.47
2018-06-27T00:11:08.540Z,6.90
2018-06-27T00:13:36.151Z,6.10
2018-06-27T00:16:03.721Z,7.00
2018-06-27T00:18:31.252Z,7.00
2018-06-27T00:20:58.755Z,7.30
2018-06-27T00:23:26.403Z,6.10
2018-06-27T00:25:54.039Z,6.53
2018-06-27T00:28:21.586Z,7.07
2018-06-27T00:30:49.146Z,6.30
2018-06-27T00:33:16.738Z,6.83
2018-06-27T00:35:44.297Z,7.30
2018-06-27T00:38:13.892Z,6.90
2018-06-27T00:40:41.650Z,6.80
2018-06-27T00:43:09.148Z,6.70
2018-06-27T00:45:36.751Z,6.47
2018-06-27T00:48:04.350Z,6.43
2018-06-27T00:50:31.948Z,6.37
2018-06-27T00:52:59.396Z,6.80
2018-06-27T00:55:26.964Z,6.30
2018-06-27T00:57:54.466Z,7.10
2018-06-27T01:00:22.068Z,6.33
2018-06-27T01:02:49.659Z,6.37
2018-06-27T01:05:17.124Z,6.93
2018-06-27T01:07:44.651Z,6.60
2018-06-27T01:10:12.196Z,6.43
2018-06-27T01:12:39.780Z,7.20
2018-06-27T01:15:07.708Z,7.40
2018-06-27T01:17:35.210Z,6.60
2018-06-27T01:20:05.269Z,6.97
2018-06-27T01:22:33.665Z,8.07
2018-06-27T01:25:01.247Z,7.13
2018-06-27T01:27:28.745Z,6.00
2018-06-27T01:29:56.297Z,6.60
2018-06-27T01:32:23.835Z,6.60
2018-06-27T01:34:51.296Z,6.23
2018-06-27T01:37:18.856Z,6.80
2018-06-27T01:39:46.427Z,6.57
2018-06-27T01:42:13.906Z,6.57
2018-06-27T01:44:41.424Z,6.50
2018-06-27T01:47:09.042Z,6.50
2018-06-27T01:49:36.576Z,6.57
2018-06-27T01:52:04.147Z,6.77
2018-06-27T01:54:31.699Z,6.70
2018-06-27T01:56:59.116Z,6.77
2018-06-27T01:59:26.654Z,6.50
2018-06-27T02:01:54.232Z,8.67
2018-06-27T02:04:21.817Z,8.40
2018-06-27T02:06:49.354Z,8.60
2018-06-27T02:09:17.342Z,8.27
2018-06-27T02:11:45.148Z,9.00
2018-06-27T02:14:12.615Z,8.50
2018-06-27T02:16:40.238Z,8.80
2018-06-27T02:19:08.903Z,9.43
2018-06-27T02:21:36.442Z,8.70
2018-06-27T02:24:03.978Z,9.13
2018-06-27T02:26:31.455Z,9.50
2018-06-27T02:28:58.917Z,9.27
2018-06-27T02:31:26.459Z,9.30
2018-06-27T02:33:54.016Z,8.90
2018-06-27T02:36:21.508Z,9.27
2018-06-27T02:38:49.074Z,9.53
2018-06-27T02:41:16.593Z,8.53
2018-06-27T02:43:44.086Z,7.60
2018-06-27T02:46:11.598Z,8.17
2018-06-27T02:48:39.166Z,8.97
2018-06-27T02:51:06.690Z,8.60
2018-06-27T02:53:37.450Z,8.57
2018-06-27T02:56:06.311Z,8.97
2018-06-27T02:58:33.894Z,9.47
2018-06-27T03:01:01.387Z,7.80
2018-06-27T03:03:28.892Z,7.83
2018-06-27T03:05:56.406Z,8.40
2018-06-27T03:08:23.895Z,8.40
2018-06-27T03:10:51.462Z,8.57
2018-06-27T03:13:18.986Z,9.27
2018-06-27T03:15:46.510Z,8.20
2018-06-27T03:18:14.006Z,8.27
2018-06-27T03:20:41.516Z,8.00
2018-06-27T03:23:09.024Z,8.77
2018-06-27T03:25:36.627Z,8.27
2018-06-27T03:28:04.289Z,8.90
2018-06-27T03:30:31.800Z,8.07
2018-06-27T03:32:59.268Z,8.50
2018-06-27T03:35:26.840Z,9.07
2018-06-27T03:37:54.349Z,8.50
2018-06-27T03:40:21.838Z,9.07
2018-06-27T03:43:03.596Z,9.73
2018-06-27T03:45:31.080Z,9.63
2018-06-27T03:47:58.564Z,9.07
2018-06-27T03:50:26.106Z,8.83
2018-06-27T03:52:53.688Z,9.53
2018-06-27T03:55:21.172Z,8.70
2018-06-27T03:57:48.635Z,8.70
2018-06-27T04:00:29.605Z,9.10
2018-06-27T04:02:57.204Z,8.80
2018-06-27T04:05:28.950Z,9.10
2018-06-27T04:07:56.434Z,7.77
2018-06-27T04:10:23.970Z,8.10
2018-06-27T04:12:51.488Z,8.97
2018-06-27T04:15:19.115Z,8.43
2018-06-27T04:17:46.707Z,9.30
2018-06-27T04:28:58.981Z,8.90
2018-06-27T04:31:26.537Z,8.80
2018-06-27T04:33:55.133Z,8.60
2018-06-27T04:36:22.725Z,9.30
2018-06-27T04:38:50.302Z,8.60
2018-06-27T04:41:17.781Z,8.73
2018-06-27T04:43:45.347Z,8.60
2018-06-27T04:46:23.538Z,9.57
2018-06-27T04:48:51.071Z,10.23
2018-06-27T04:51:18.713Z,10.43
2018-06-27T04:53:46.284Z,10.67
2018-06-27T04:56:13.850Z,10.90
2018-06-27T04:58:41.438Z,11.43
2018-06-27T05:04:14.231Z,10.10
2018-06-27T05:06:41.771Z,10.50
2018-06-27T05:09:09.965Z,10.87
2018-06-27T05:11:37.832Z,10.50
2018-06-27T05:14:05.437Z,10.97
2018-06-27T05:16:32.981Z,10.23
2018-06-27T05:19:00.478Z,11.57
2018-06-27T05:21:28.008Z,10.50
2018-06-27T05:23:55.537Z,12.47
2018-06-27T05:26:27.078Z,10.50
2018-06-27T05:28:54.599Z,11.80
2018-06-27T05:31:22.192Z,10.00
2018-06-27T05:33:49.714Z,11.33
2018-06-27T05:36:17.192Z,11.17
2018-06-27T05:38:44.752Z,10.80
2018-06-27T05:41:12.328Z,11.23
2018-06-27T05:43:39.787Z,10.13
2018-06-27T05:46:07.310Z,12.13
2018-06-27T05:48:34.946Z,11.60
2018-06-27T05:51:02.486Z,10.80
2018-06-27T05:53:30.025Z,12.10
2018-06-27T05:55:57.549Z,10.57
2018-06-27T05:58:35.485Z,11.50
2018-06-27T06:01:03.056Z,13.27
2018-06-27T06:03:30.895Z,11.37
2018-06-27T06:05:58.454Z,11.47
2018-06-27T06:08:25.930Z,11.90
2018-06-27T06:10:53.421Z,14.23
2018-06-27T06:13:30.502Z,14.10
2018-06-27T06:15:58.085Z,13.70
2018-06-27T06:18:25.621Z,15.07
2018-06-27T06:20:55.218Z,15.07
2018-06-27T06:23:22.747Z,14.03
2018-06-27T06:25:50.206Z,14.67
2018-06-27T06:28:17.883Z,13.77
2018-06-27T06:30:45.375Z,12.80
2018-06-27T06:33:12.927Z,14.07
2018-06-27T06:35:40.478Z,12.90
2018-06-27T06:38:08.077Z,12.00
2018-06-27T06:40:36.754Z,11.77
2018-06-27T06:43:04.268Z,11.77
2018-06-27T06:45:31.822Z,11.23
2018-06-27T06:47:59.452Z,10.33
2018-06-27T06:50:26.927Z,11.60
2018-06-27T06:52:54.728Z,11.23
2018-06-27T06:55:29.563Z,10.60
2018-06-27T06:57:57.076Z,11.63
2018-06-27T07:00:24.660Z,11.10
2018-06-27T07:02:52.237Z,9.50
2018-06-27T07:05:19.820Z,10.70
2018-06-27T07:07:47.344Z,9.90
2018-06-27T07:10:14.891Z,9.10
2018-06-27T07:12:42.446Z,9.20
2018-06-27T07:15:10.130Z,8.83
2018-06-27T07:17:38.009Z,8.50
2018-06-27T07:20:05.678Z,8.83
2018-06-27T07:22:33.185Z,7.90
2018-06-27T07:25:00.730Z,9.10
2018-06-27T07:27:28.402Z,8.00
2018-06-27T07:29:55.901Z,8.13
2018-06-27T07:32:23.561Z,8.53
2018-06-27T07:34:56.715Z,7.80
2018-06-27T07:37:24.332Z,8.40
2018-06-27T07:39:51.823Z,8.00
2018-06-27T07:42:19.355Z,8.30
2018-06-27T07:44:46.939Z,7.97
2018-06-27T07:47:16.558Z,8.33
2018-06-27T07:49:44.122Z,7.90
2018-06-27T07:52:11.680Z,7.00
2018-06-27T07:54:40.319Z,7.60
2018-06-27T07:57:09.671Z,7.23
2018-06-27T07:59:37.375Z,5.63
2018-06-27T08:02:05.223Z,5.50
2018-06-27T08:04:32.771Z,6.37
2018-06-27T08:07:00.272Z,6.23
2018-06-27T08:09:27.792Z,4.80
2018-06-27T08:11:55.326Z,5.13
2018-06-27T08:14:22.887Z,6.80
2018-06-27T08:16:50.691Z,6.17
2018-06-27T08:19:22.958Z,5.93
2018-06-27T08:21:50.529Z,4.80
2018-06-27T08:24:18.036Z,5.60
2018-06-27T08:26:45.626Z,5.50
2018-06-27T08:29:13.202Z,5.10
2018-06-27T08:31:40.895Z,4.90
2018-06-27T08:34:08.493Z,4.87
2018-06-27T08:36:36.061Z,4.50
2018-06-27T08:39:06.881Z,4.37
2018-06-27T08:41:34.345Z,5.53
2018-06-27T08:44:01.863Z,5.13
2018-06-27T08:46:29.453Z,4.30
2018-06-27T08:48:57.033Z,4.63
2018-06-27T08:51:24.603Z,4.80
2018-06-27T08:53:52.182Z,5.30
2018-06-27T08:56:19.644Z,4.60
2018-06-27T08:58:47.181Z,4.83
2018-06-27T09:01:14.860Z,4.60
2018-06-27T09:03:42.531Z,4.97
2018-06-27T09:06:10.180Z,4.77
2018-06-27T09:08:37.726Z,4.23
2018-06-27T09:11:05.423Z,4.73
2018-06-27T09:13:32.996Z,4.50
2018-06-27T09:16:03.877Z,4.70
2018-06-27T09:18:31.517Z,4.70
2018-06-27T09:20:59.047Z,4.73
2018-06-27T09:23:26.637Z,4.60
2018-06-27T09:25:54.137Z,4.10
2018-06-27T09:28:21.711Z,4.57
2018-06-27T09:30:49.341Z,4.60
2018-06-27T09:33:16.943Z,3.97
2018-06-27T09:35:44.552Z,4.63
2018-06-27T09:38:12.095Z,3.40
2018-06-27T09:40:39.663Z,3.80
2018-06-27T09:43:07.175Z,3.73
2018-06-27T09:45:35.332Z,3.83
2018-06-27T09:48:05.902Z,3.60
2018-06-27T09:50:33.419Z,3.63
2018-06-27T09:53:01.038Z,3.37
2018-06-27T09:55:28.550Z,4.10
2018-06-27T09:57:56.013Z,4.50
2018-06-27T10:00:29.228Z,3.80
2018-06-27T10:02:56.750Z,4.50
2018-06-27T10:05:24.387Z,3.90
2018-06-27T10:07:51.997Z,3.73
2018-06-27T10:10:21.526Z,3.37
2018-06-27T10:12:49.107Z,3.40
2018-06-27T10:15:16.657Z,3.83
2018-06-27T10:17:44.202Z,4.30
2018-06-27T10:20:11.734Z,3.33
2018-06-27T10:22:39.367Z,3.30
2018-06-27T10:25:06.906Z,3.57
2018-06-27T10:27:34.401Z,3.33
2018-06-27T10:30:03.497Z,3.40
2018-06-27T10:32:31.030Z,3.23
2018-06-27T10:34:58.563Z,3.23
2018-06-27T10:37:26.052Z,4.00
2018-06-27T10:39:53.621Z,3.73
2018-06-27T10:42:21.228Z,3.53
2018-06-27T10:44:48.838Z,3.30
2018-06-27T10:47:16.408Z,3.10
2018-06-27T10:49:43.939Z,3.00
2018-06-27T10:52:11.534Z,3.40
2018-06-27T10:54:44.565Z,3.20
2018-06-27T10:57:12.184Z,3.47
2018-06-27T10:59:39.818Z,3.60
2018-06-27T11:02:07.429Z,3.30
2018-06-27T11:04:36.126Z,3.90
2018-06-27T11:07:03.745Z,3.40
2018-06-27T11:09:31.205Z,3.83
2018-06-27T11:11:58.816Z,3.83
2018-06-27T11:14:26.360Z,3.73
2018-06-27T11:16:54.112Z,3.10
2018-06-27T11:19:26.100Z,4.10
2018-06-27T11:21:53.705Z,3.90
2018-06-27T11:24:21.129Z,3.27
2018-06-27T11:26:48.721Z,3.57
2018-06-27T11:29:16.338Z,3.57
2018-06-27T11:31:45.006Z,3.30
2018-06-27T11:34:12.742Z,3.43
2018-06-27T11:36:42.170Z,3.83
2018-06-27T11:39:13.771Z,3.43
2018-06-27T11:41:42.853Z,2.73
2018-06-27T11:44:10.570Z,3.77
2018-06-27T11:46:38.281Z,3.13
2018-06-27T11:49:20.917Z,3.30
2018-06-27T11:51:50.438Z,3.30
2018-06-27T11:54:18.631Z,4.50
2018-06-27T11:56:49.308Z,3.50
2018-06-27T11:59:17.592Z,3.43
2018-06-27T12:01:47.264Z,3.23
2018-06-27T12:04:16.453Z,3.83
2018-06-27T12:06:48.024Z,2.70
2018-06-27T12:09:15.766Z,3.00
2018-06-27T12:11:43.428Z,2.90
2018-06-27T12:14:11.064Z,2.27
2018-06-27T12:16:38.626Z,3.63
2018-06-27T12:19:06.284Z,3.30
2018-06-27T12:21:33.832Z,3.27
2018-06-27T12:24:01.437Z,3.77
2018-06-27T12:26:29.022Z,3.13
2018-06-27T12:28:56.548Z,2.50
2018-06-27T12:31:24.190Z,2.77
2018-06-27T12:33:51.768Z,2.93
2018-06-27T12:36:19.248Z,2.97
2018-06-27T12:38:46.820Z,2.90
2018-06-27T12:41:14.376Z,2.30
2018-06-27T12:43:41.820Z,2.30
2018-06-27T12:46:09.401Z,2.47
2018-06-27T12:48:36.947Z,2.60
2018-06-27T12:51:04.588Z,2.33
2018-06-27T12:53:32.152Z,3.00
2018-06-27T12:55:59.647Z,3.10
2018-06-27T12:58:27.108Z,3.20
2018-06-27T13:00:54.662Z,2.60
2018-06-27T13:03:26.118Z,3.00
2018-06-27T13:05:53.639Z,2.70
2018-06-27T13:08:21.148Z,3.20
2018-06-27T13:10:51.036Z,3.23
2018-06-27T13:13:18.666Z,3.70
2018-06-27T13:15:52.649Z,3.30
2018-06-27T13:18:20.207Z,3.30
2018-06-27T13:20:47.847Z,3.17
2018-06-27T13:23:15.367Z,3.77
2018-06-27T13:25:42.964Z,3.50
2018-06-27T13:28:12.180Z,3.60
2018-06-27T13:30:41.885Z,3.70
2018-06-27T13:33:09.484Z,4.20
2018-06-27T13:35:37.122Z,3.97
2018-06-27T13:38:04.774Z,3.90
2018-06-27T13:40:32.301Z,3.77
2018-06-27T13:42:59.796Z,3.53
2018-06-27T13:45:29.257Z,3.97
2018-06-27T13:47:56.773Z,3.40
2018-06-27T13:50:24.307Z,3.70
2018-06-27T13:52:51.842Z,3.80
2018-06-27T13:55:19.526Z,2.93
2018-06-27T13:57:47.091Z,3.40
2018-06-27T14:00:14.674Z,3.27
2018-06-27T14:02:42.371Z,3.30
2018-06-27T14:05:10.097Z,3.27
2018-06-27T14:07:37.738Z,3.13
2018-06-27T14:10:05.449Z,2.80
2018-06-27T14:12:32.930Z,2.73
2018-06-27T14:15:00.467Z,2.87
2018-06-27T14:17:28.028Z,2.83
2018-06-27T14:19:55.603Z,3.00
2018-06-27T14:22:23.168Z,3.17
2018-06-27T14:24:50.708Z,3.43
2018-06-27T14:27:18.349Z,3.30
2018-06-27T14:29:46.012Z,3.07
2018-06-27T14:32:13.594Z,2.60
2018-06-27T14:34:41.149Z,3.30
2018-06-27T14:37:08.708Z,3.17
2018-06-27T14:39:36.291Z,2.80
2018-06-27T14:42:03.946Z,2.97
2018-06-27T14:44:31.459Z,3.40
2018-06-27T14:46:59.088Z,3.17
2018-06-27T14:49:26.729Z,2.40
2018-06-27T14:51:54.270Z,2.80
2018-06-27T14:54:21.846Z,2.53
2018-06-27T14:56:59.836Z,2.30
2018-06-27T14:59:27.512Z,2.47
2018-06-27T15:01:54.998Z,3.30
2018-06-27T15:04:22.641Z,2.40
2018-06-27T15:06:50.186Z,3.03
2018-06-27T15:09:17.798Z,2.57
2018-06-27T15:11:45.306Z,2.50
2018-06-27T15:14:12.932Z,2.47
2018-06-27T15:16:40.538Z,2.47
2018-06-27T15:19:07.951Z,2.27
2018-06-27T15:21:35.529Z,2.73
2018-06-27T15:24:03.101Z,2.40
2018-06-27T15:26:30.769Z,2.50
2018-06-27T15:28:58.277Z,2.03
2018-06-27T15:31:25.960Z,2.00
2018-06-27T15:33:53.461Z,2.73
2018-06-27T15:36:21.130Z,2.00
2018-06-27T15:38:48.651Z,2.13
2018-06-27T15:41:21.090Z,1.93
2018-06-27T15:43:48.661Z,2.17
2018-06-27T15:46:16.274Z,2.07
2018-06-27T15:48:44.280Z,2.10
2018-06-27T15:51:11.810Z,2.03
2018-06-27T15:53:39.466Z,2.50
2018-06-27T15:56:07.000Z,2.07
2018-06-27T15:58:34.536Z,1.90
2018-06-27T16:01:02.196Z,2.10
2018-06-27T16:03:29.791Z,1.77
2018-06-27T16:05:57.357Z,2.43
2018-06-27T16:08:24.997Z,1.90
2018-06-27T16:10:52.575Z,2.10
2018-06-27T16:13:20.158Z,2.50
2018-06-27T16:15:47.731Z,2.10
2018-06-27T16:18:15.274Z,2.20
2018-06-27T16:20:42.822Z,2.17
2018-06-27T16:23:10.362Z,2.17
2018-06-27T16:25:38.956Z,1.90
2018-06-27T16:28:20.504Z,1.60
2018-06-27T16:30:53.314Z,1.60
2018-06-27T16:33:20.889Z,1.90
2018-06-27T16:35:48.461Z,1.60
2018-06-27T16:38:15.904Z,2.20
2018-06-27T16:40:43.429Z,1.67
2018-06-27T16:43:16.778Z,1.70
2018-06-27T16:45:44.339Z,2.13
2018-06-27T16:48:11.950Z,1.53
2018-06-27T16:50:39.652Z,2.50
2018-06-27T16:53:07.168Z,2.13
2018-06-27T16:55:34.697Z,2.03
2018-06-27T16:58:02.298Z,2.00
2018-06-27T17:00:29.871Z,2.03
2018-06-27T17:03:05.034Z,1.70
2018-06-27T17:05:32.555Z,2.00
2018-06-27T17:07:59.998Z,2.20
2018-06-27T17:10:27.815Z,1.80
2018-06-27T17:12:55.473Z,2.20
2018-06-27T17:15:22.955Z,1.93
2018-06-27T17:17:50.524Z,1.83
2018-06-27T17:20:18.065Z,1.73
2018-06-27T17:22:45.611Z,1.77
2018-06-27T17:25:13.231Z,1.97
2018-06-27T17:27:40.861Z,1.60
2018-06-27T17:30:08.475Z,1.70
2018-06-27T17:32:36.001Z,2.27
2018-06-27T17:35:03.516Z,1.60
2018-06-27T17:37:31.043Z,1.80
2018-06-27T17:39:58.624Z,1.77
2018-06-27T17:42:26.413Z,1.73
2018-06-27T17:44:53.912Z,1.77
2018-06-27T17:47:21.510Z,1.20
2018-06-27T17:49:49.120Z,1.93
2018-06-27T17:52:16.665Z,1.60
2018-06-27T17:54:44.269Z,1.50
2018-06-27T17:57:24.158Z,1.33
2018-06-27T17:59:51.724Z,1.60
2018-06-27T18:02:19.305Z,1.50
2018-06-27T18:04:46.884Z,1.30
2018-06-27T18:07:14.644Z,1.33
2018-06-27T18:09:42.313Z,1.40
2018-06-27T18:12:09.895Z,1.83
2018-06-27T18:14:37.575Z,1.30
2018-06-27T18:17:05.204Z,1.80
2018-06-27T18:19:32.786Z,1.70
2018-06-27T18:22:00.393Z,1.37
2018-06-27T18:24:28.043Z,2.10
2018-06-27T18:26:55.640Z,1.73
2018-06-27T18:29:23.328Z,1.60
2018-06-27T18:31:51.090Z,1.70
2018-06-27T18:34:18.755Z,1.17
2018-06-27T18:36:46.334Z,1.77
2018-06-27T18:39:13.858Z,1.40
2018-06-27T18:41:41.398Z,1.60
2018-06-27T18:44:09.162Z,1.33
2018-06-27T18:46:36.743Z,1.57
2018-06-27T18:49:04.648Z,1.40
2018-06-27T18:51:44.620Z,2.10
2018-06-27T18:54:12.168Z,1.57
2018-06-27T18:56:39.803Z,1.50
2018-06-27T18:59:24.089Z,1.83
2018-06-27T19:01:51.854Z,1.70
2018-06-27T19:04:19.452Z,1.60
2018-06-27T19:06:47.015Z,1.60
2018-06-27T19:09:14.532Z,1.27
2018-06-27T19:11:42.270Z,1.50
2018-06-27T19:14:09.975Z,1.73
2018-06-27T19:16:37.525Z,1.50
2018-06-27T19:19:05.388Z,1.53
2018-06-27T19:21:32.919Z,1.50
2018-06-27T19:24:00.497Z,1.47
2018-06-27T19:26:28.002Z,1.50
2018-06-27T19:28:55.562Z,1.50
2018-06-27T19:31:23.108Z,1.50
2018-06-27T19:36:49.225Z,1.60
2018-06-27T19:39:39.347Z,1.97
2018-06-27T19:42:15.111Z,1.20
2018-06-27T19:44:42.702Z,1.60
2018-06-27T19:47:10.245Z,1.60
2018-06-27T19:49:37.862Z,1.53
2018-06-27T19:52:05.488Z,1.67
2018-06-27T19:54:33.085Z,1.57
2018-06-27T19:57:04.068Z,1.30
2018-06-27T19:59:31.574Z,1.93
2018-06-27T20:01:59.228Z,1.70
2018-06-27T20:04:26.690Z,1.63
2018-06-27T20:06:54.258Z,1.47
2018-06-27T20:09:21.891Z,2.17
2018-06-27T20:11:49.455Z,1.80
2018-06-27T20:14:16.938Z,1.70
2018-06-27T20:16:44.433Z,1.73
2018-06-27T20:19:24.804Z,1.50
2018-06-27T20:21:52.395Z,1.70
2018-06-27T20:24:19.856Z,1.80
2018-06-27T20:26:47.398Z,1.60
2018-06-27T20:29:14.944Z,1.80
2018-06-27T20:31:42.443Z,2.10
2018-06-27T20:34:09.973Z,1.67
2018-06-27T20:36:37.551Z,2.07
2018-06-27T20:39:07.257Z,1.70
2018-06-27T20:41:34.934Z,2.00
2018-06-27T20:44:02.842Z,1.60
2018-06-27T20:46:30.440Z,1.70
2018-06-27T20:48:58.001Z,1.70
2018-06-27T20:51:25.534Z,1.70
2018-06-27T20:53:53.059Z,1.97
2018-06-27T20:56:20.614Z,1.30
2018-06-27T20:58:48.085Z,1.90
2018-06-27T21:01:15.686Z,1.70
2018-06-27T21:03:43.196Z,1.50
2018-06-27T21:06:10.701Z,2.07
2018-06-27T21:08:38.216Z,1.70
2018-06-27T21:11:05.731Z,2.00
2018-06-27T21:13:33.257Z,1.60
2018-06-27T21:16:00.704Z,2.30
2018-06-27T21:18:48.621Z,1.90
2018-06-27T21:24:25.711Z,2.10
2018-06-27T21:27:00.997Z,1.63
2018-06-27T21:29:28.563Z,1.60
2018-06-27T21:32:02.480Z,2.00
2018-06-27T21:34:55.185Z,1.40
2018-06-27T21:37:22.742Z,1.60
2018-06-27T21:39:50.275Z,1.80
2018-06-27T21:45:11.281Z,1.70
2018-06-27T21:47:38.821Z,1.70
2018-06-27T21:50:06.426Z,1.80
2018-06-27T21:52:33.965Z,2.00
2018-06-27T21:55:01.573Z,1.67
2018-06-27T21:57:29.239Z,2.30
2018-06-27T21:59:56.796Z,1.80
2018-06-27T22:02:24.398Z,2.57
2018-06-27T22:04:51.951Z,2.30
2018-06-27T22:07:19.512Z,1.97
2018-06-27T22:09:47.098Z,2.33
2018-06-27T22:12:15.645Z,2.07
2018-06-27T22:14:43.131Z,2.00
2018-06-27T22:17:10.681Z,2.13
2018-06-27T22:19:38.265Z,1.80
2018-06-27T22:22:05.799Z,1.97
2018-06-27T22:24:33.381Z,1.57
2018-06-27T22:27:00.954Z,2.67
2018-06-27T22:29:28.439Z,1.87
2018-06-27T22:31:56.039Z,1.57
2018-06-27T22:34:23.684Z,1.70
2018-06-27T22:36:51.149Z,2.00
2018-06-27T22:39:18.721Z,1.63
2018-06-27T22:41:46.270Z,1.67
2018-06-27T22:44:13.805Z,2.30
2018-06-27T22:46:41.354Z,1.90
2018-06-27T22:49:08.869Z,1.90
2018-06-27T22:51:36.385Z,1.67
2018-06-27T22:54:04.024Z,1.80
2018-06-27T22:56:31.578Z,1.87
2018-06-27T22:58:59.182Z,1.97
2018-06-27T23:01:26.708Z,1.70
2018-06-27T23:03:54.199Z,1.53
2018-06-27T23:06:21.732Z,1.70
2018-06-27T23:08:49.342Z,2.00
2018-06-27T23:11:16.922Z,1.33
2018-06-27T23:13:44.502Z,1.60
2018-06-27T23:16:12.087Z,1.60
2018-06-27T23:18:39.612Z,2.40
2018-06-27T23:21:07.164Z,1.70
2018-06-27T23:23:34.688Z,1.47
2018-06-27T23:26:02.266Z,1.60
2018-06-27T23:28:29.853Z,1.40
2018-06-27T23:30:57.370Z,1.43
2018-06-27T23:33:24.944Z,1.40
2018-06-27T23:35:52.470Z,1.50
2018-06-27T23:38:20.003Z,1.80
2018-06-27T23:40:47.501Z,1.70
2018-06-27T23:43:15.138Z,1.33
2018-06-27T23:45:42.695Z,2.03
2018-06-27T23:48:14.592Z,2.00
2018-06-27T23:50:42.142Z,1.87
2018-06-27T23:53:09.650Z,1.53
2018-06-27T23:55:37.326Z,1.30
2018-06-27T23:58:05.430Z,1.87
